createdAt,value
2018-10-15T00:00:20.126Z,99.90
2018-10-15T00:02:49.811Z,99.90
2018-10-15T00:05:19.061Z,99.90
2018-10-15T00:07:48.339Z,99.90
2018-10-15T00:10:17.535Z,99.90
2018-10-15T00:12:47.287Z,99.90
2018-10-15T00:15:27.137Z,99.90
2018-10-15T00:17:57.139Z,99.90
2018-10-15T00:20:26.392Z,99.90
2018-10-15T00:22:55.947Z,99.90
2018-10-15T00:25:25.055Z,99.90
2018-10-15T00:27:54.180Z,99.90
2018-10-15T00:30:23.352Z,99.90
2018-10-15T00:32:52.482Z,99.90
2018-10-15T00:35:22.404Z,99.90
2018-10-15T00:37:51.505Z,99.90
2018-10-15T00:40:20.616Z,99.90
2018-10-15T00:42:50.264Z,99.90
2018-10-15T00:45:20.431Z,99.90
2018-10-15T00:47:50.201Z,99.90
2018-10-15T00:50:19.329Z,99.90
2018-10-15T00:52:48.456Z,99.90
2018-10-15T00:55:17.651Z,99.90
2018-10-15T00:57:46.767Z,99.90
2018-10-15T01:00:17.001Z,99.90
2018-10-15T01:02:47.007Z,99.90
2018-10-15T01:05:16.216Z,99.90
2018-10-15T01:07:45.403Z,99.90
2018-10-15T01:10:14.909Z,99.90
2018-10-15T01:12:44.118Z,99.90
2018-10-15T01:15:14.016Z,99.90
2018-10-15T01:17:43.262Z,99.90
2018-10-15T01:20:13.768Z,99.90
2018-10-15T01:22:43.194Z,99.90
2018-10-15T01:25:12.534Z,99.90
2018-10-15T01:27:41.674Z,99.90
2018-10-15T01:30:11.879Z,99.90
2018-10-15T01:32:41.460Z,99.90
2018-10-15T01:35:11.078Z,99.90
2018-10-15T01:37:40.334Z,99.90
2018-10-15T01:40:10.191Z,99.90
2018-10-15T01:42:39.409Z,99.90
2018-10-15T01:45:08.821Z,99.90
2018-10-15T01:47:38.313Z,99.90
2018-10-15T01:50:07.475Z,99.90
2018-10-15T01:52:36.784Z,99.90
2018-10-15T01:55:07.201Z,99.90
2018-10-15T01:57:36.419Z,99.90
2018-10-15T02:00:06.679Z,99.90
2018-10-15T02:02:35.836Z,99.90
2018-10-15T02:05:05.695Z,99.90
2018-10-15T02:07:34.838Z,99.90
2018-10-15T02:10:04.011Z,99.90
2018-10-15T02:12:34.430Z,99.90
2018-10-15T02:15:04.367Z,99.90
2018-10-15T02:17:33.469Z,99.90
2018-10-15T02:20:02.693Z,99.90
2018-10-15T02:22:31.870Z,99.90
2018-10-15T02:25:01.598Z,99.90
2018-10-15T02:27:30.916Z,99.90
2018-10-15T02:30:00.152Z,99.90
2018-10-15T02:32:29.297Z,99.90
2018-10-15T02:34:58.404Z,99.90
2018-10-15T02:37:27.635Z,99.90
2018-10-15T02:39:56.763Z,99.90
2018-10-15T02:42:25.880Z,99.90
2018-10-15T02:44:54.980Z,99.90
2018-10-15T02:47:24.088Z,99.90
2018-10-15T02:49:53.938Z,99.90
2018-10-15T02:52:23.077Z,99.90
2018-10-15T02:54:52.179Z,99.90
2018-10-15T02:57:21.939Z,99.90
2018-10-15T02:59:51.047Z,99.90
2018-10-15T03:02:20.180Z,99.90
2018-10-15T03:04:49.251Z,99.90
2018-10-15T03:07:19.022Z,99.90
2018-10-15T03:09:48.160Z,99.90
2018-10-15T03:12:17.397Z,99.90
2018-10-15T03:14:46.573Z,99.90
2018-10-15T03:17:15.683Z,99.90
2018-10-15T03:19:48.878Z,99.90
2018-10-15T03:22:17.930Z,99.90
2018-10-15T03:24:47.103Z,99.90
2018-10-15T03:27:16.684Z,99.90
2018-10-15T03:29:45.748Z,99.90
2018-10-15T03:32:14.933Z,99.90
2018-10-15T03:34:44.070Z,99.90
2018-10-15T03:37:13.187Z,99.90
2018-10-15T03:39:43.190Z,99.90
2018-10-15T03:42:12.295Z,99.90
2018-10-15T03:44:41.412Z,99.90
2018-10-15T03:47:11.084Z,99.90
2018-10-15T03:49:40.170Z,99.90
2018-10-15T03:52:09.258Z,99.90
2018-10-15T03:54:38.434Z,99.90
2018-10-15T03:57:07.526Z,99.90
2018-10-15T03:59:37.227Z,99.90
2018-10-15T04:02:06.932Z,99.90
2018-10-15T04:04:36.079Z,99.90
2018-10-15T04:07:05.880Z,99.90
2018-10-15T04:09:34.963Z,99.90
2018-10-15T04:12:04.514Z,99.90
2018-10-15T04:14:34.559Z,99.90
2018-10-15T04:17:03.642Z,99.90
2018-10-15T04:19:33.559Z,99.90
2018-10-15T04:22:02.729Z,99.90
2018-10-15T04:24:31.798Z,99.90
2018-10-15T04:27:00.995Z,99.90
2018-10-15T04:29:30.678Z,99.90
2018-10-15T04:31:59.838Z,99.90
2018-10-15T04:34:28.961Z,99.90
2018-10-15T04:36:58.058Z,99.90
2018-10-15T04:39:27.177Z,99.90
2018-10-15T04:41:56.916Z,99.90
2018-10-15T04:44:27.121Z,99.90
2018-10-15T04:46:56.761Z,99.90
2018-10-15T04:49:26.041Z,99.90
2018-10-15T04:51:54.984Z,99.90
2018-10-15T04:54:24.122Z,99.90
2018-10-15T04:56:53.218Z,99.90
2018-10-15T04:59:22.440Z,99.90
2018-10-15T05:01:51.572Z,99.90
2018-10-15T05:04:20.800Z,99.90
2018-10-15T05:06:50.528Z,99.90
2018-10-15T05:09:19.646Z,99.90
2018-10-15T05:11:49.758Z,99.90
2018-10-15T05:14:18.885Z,99.90
2018-10-15T05:16:48.207Z,99.90
2018-10-15T05:19:17.388Z,99.90
2018-10-15T05:21:46.491Z,99.90
2018-10-15T05:24:15.645Z,99.90
2018-10-15T05:26:45.362Z,99.90
2018-10-15T05:29:15.331Z,99.90
2018-10-15T05:31:44.426Z,99.90
2018-10-15T05:34:13.533Z,99.90
2018-10-15T05:36:43.462Z,99.90
2018-10-15T05:39:12.820Z,99.90
2018-10-15T05:41:42.004Z,99.90
2018-10-15T05:44:11.217Z,99.90
2018-10-15T05:46:40.714Z,99.90
2018-10-15T05:49:10.091Z,99.90
2018-10-15T05:51:39.218Z,99.90
2018-10-15T05:54:08.370Z,99.90
2018-10-15T05:56:38.087Z,99.90
2018-10-15T05:59:07.302Z,99.90
2018-10-15T06:01:36.442Z,99.90
2018-10-15T06:04:06.227Z,99.90
2018-10-15T06:06:35.284Z,99.90
2018-10-15T06:09:06.063Z,99.90
2018-10-15T06:11:35.232Z,99.90
2018-10-15T06:14:05.750Z,99.90
2018-10-15T06:16:36.260Z,99.90
2018-10-15T06:19:05.515Z,99.90
2018-10-15T06:21:34.696Z,99.90
2018-10-15T06:24:03.888Z,99.90
2018-10-15T06:26:33.823Z,99.90
2018-10-15T06:29:02.939Z,99.90
2018-10-15T06:33:58.553Z,99.90
2018-10-15T06:36:27.752Z,99.90
2018-10-15T06:38:57.812Z,99.90
2018-10-15T06:41:27.057Z,99.90
2018-10-15T06:43:57.597Z,99.90
2018-10-15T06:46:26.779Z,99.90
2018-10-15T06:48:55.984Z,99.90
2018-10-15T06:51:25.249Z,99.90
2018-10-15T06:53:54.329Z,99.90
2018-10-15T06:56:23.562Z,99.90
2018-10-15T06:58:52.797Z,99.90
2018-10-15T07:01:21.990Z,99.90
2018-10-15T07:03:51.114Z,99.90
2018-10-15T07:06:20.435Z,99.90
2018-10-15T07:08:50.760Z,99.90
2018-10-15T07:11:19.930Z,99.90
2018-10-15T07:13:49.190Z,99.90
2018-10-15T07:16:18.445Z,99.90
2018-10-15T07:18:47.532Z,99.90
2018-10-15T07:21:16.841Z,99.90
2018-10-15T07:23:46.050Z,99.90
2018-10-15T07:26:15.542Z,99.90
2018-10-15T07:28:45.454Z,99.90
2018-10-15T07:31:14.702Z,99.90
2018-10-15T07:33:43.992Z,99.90
2018-10-15T07:36:13.811Z,99.90
2018-10-15T07:38:43.673Z,99.90
2018-10-15T07:41:13.606Z,99.90
2018-10-15T07:43:42.845Z,99.90
2018-10-15T07:46:12.075Z,99.90
2018-10-15T07:48:41.213Z,99.90
2018-10-15T07:51:11.600Z,99.90
2018-10-15T07:53:41.135Z,99.90
2018-10-15T07:56:10.298Z,99.90
2018-10-15T07:58:39.636Z,99.90
2018-10-15T08:01:14.153Z,99.90
2018-10-15T08:03:43.669Z,99.60
2018-10-15T08:06:14.683Z,99.90
2018-10-15T08:08:44.334Z,99.20
2018-10-15T08:11:13.816Z,99.30
2018-10-15T08:13:44.786Z,98.60
2018-10-15T08:16:13.987Z,98.30
2018-10-15T08:18:43.895Z,98.60
2018-10-15T08:21:14.109Z,96.90
2018-10-15T08:23:43.248Z,96.90
2018-10-15T08:26:12.435Z,97.00
2018-10-15T08:28:41.643Z,96.50
2018-10-15T08:31:11.296Z,96.30
2018-10-15T08:33:40.494Z,96.20
2018-10-15T08:36:10.108Z,95.20
2018-10-15T08:38:39.203Z,95.00
2018-10-15T08:41:08.527Z,95.10
2018-10-15T08:43:37.718Z,94.40
2018-10-15T08:46:07.221Z,95.00
2018-10-15T08:48:36.419Z,94.60
2018-10-15T08:51:06.320Z,93.20
2018-10-15T08:53:35.424Z,92.90
2018-10-15T08:56:04.761Z,92.60
2018-10-15T08:58:34.875Z,92.50
2018-10-15T09:01:04.524Z,92.00
2018-10-15T09:03:33.608Z,91.80
2018-10-15T09:06:02.730Z,90.80
2018-10-15T09:08:31.931Z,90.30
2018-10-15T09:11:01.138Z,89.60
2018-10-15T09:13:30.222Z,88.00
2018-10-15T09:15:59.477Z,86.50
2018-10-15T09:18:28.940Z,85.70
2018-10-15T09:20:58.240Z,85.70
2018-10-15T09:23:27.352Z,84.40
2018-10-15T09:25:56.637Z,84.70
2018-10-15T09:28:26.146Z,83.40
2018-10-15T09:30:55.429Z,83.50
2018-10-15T09:33:24.658Z,77.00
2018-10-15T09:35:54.386Z,73.10
2018-10-15T09:38:24.051Z,71.00
2018-10-15T09:40:53.346Z,67.50
2018-10-15T09:43:22.543Z,64.20
2018-10-15T09:45:51.843Z,61.60
2018-10-15T09:48:20.834Z,59.70
2018-10-15T09:50:50.090Z,58.40
2018-10-15T09:53:19.453Z,58.50
2018-10-15T09:55:49.389Z,58.40
2018-10-15T09:58:19.225Z,56.50
2018-10-15T10:00:50.109Z,55.90
2018-10-15T10:03:19.347Z,54.90
2018-10-15T10:05:48.620Z,55.00
2018-10-15T10:08:17.913Z,54.30
2018-10-15T10:10:47.548Z,53.40
2018-10-15T10:13:16.859Z,53.00
2018-10-15T10:15:46.010Z,53.00
2018-10-15T10:18:15.628Z,52.40
2018-10-15T10:20:45.459Z,51.30
2018-10-15T10:23:14.692Z,51.60
2018-10-15T10:25:44.250Z,52.30
2018-10-15T10:28:13.530Z,52.00
2018-10-15T10:30:42.635Z,53.60
2018-10-15T10:33:12.454Z,53.10
2018-10-15T10:36:16.896Z,52.60
2018-10-15T10:38:52.139Z,53.40
2018-10-15T10:41:22.432Z,51.90
2018-10-15T10:43:52.266Z,51.80
2018-10-15T10:46:22.500Z,51.40
2018-10-15T10:48:52.439Z,50.80
2018-10-15T10:51:23.112Z,50.20
2018-10-15T10:53:53.132Z,51.10
2018-10-15T10:56:23.709Z,51.10
2018-10-15T10:58:53.775Z,51.20
2018-10-15T11:01:23.138Z,50.90
2018-10-15T11:03:52.314Z,49.50
2018-10-15T11:06:21.768Z,50.00
2018-10-15T11:08:51.625Z,49.70
2018-10-15T11:11:23.872Z,49.10
2018-10-15T11:16:19.915Z,49.10
2018-10-15T11:18:49.901Z,50.20
2018-10-15T11:21:19.292Z,51.00
2018-10-15T11:23:48.615Z,50.90
2018-10-15T11:26:17.776Z,50.80
2018-10-15T11:28:47.990Z,50.90
2018-10-15T11:31:17.594Z,50.80
2018-10-15T11:33:46.808Z,49.50
2018-10-15T11:36:16.028Z,49.30
2018-10-15T11:38:45.968Z,48.40
2018-10-15T11:41:15.132Z,48.90
2018-10-15T11:43:45.622Z,48.90
2018-10-15T11:46:14.705Z,49.00
2018-10-15T11:48:44.012Z,49.40
2018-10-15T11:51:13.239Z,49.10
2018-10-15T11:53:42.487Z,48.70
2018-10-15T11:56:11.614Z,48.40
2018-10-15T11:58:40.800Z,47.70
2018-10-15T12:01:10.151Z,47.90
2018-10-15T12:03:42.855Z,48.20
2018-10-15T12:06:18.502Z,47.80
2018-10-15T12:08:47.895Z,47.40
2018-10-15T12:11:17.248Z,47.90
2018-10-15T12:13:46.348Z,48.80
2018-10-15T12:16:15.488Z,51.20
2018-10-15T12:18:44.635Z,52.20
2018-10-15T12:21:13.737Z,54.50
2018-10-15T12:23:42.902Z,55.50
2018-10-15T12:26:12.075Z,56.90
2018-10-15T12:28:41.879Z,57.80
2018-10-15T12:31:11.125Z,58.90
2018-10-15T12:33:40.323Z,59.00
2018-10-15T12:36:09.526Z,59.20
2018-10-15T12:38:38.657Z,59.50
2018-10-15T12:41:08.221Z,59.10
2018-10-15T12:43:37.346Z,59.30
2018-10-15T12:46:06.530Z,60.00
2018-10-15T12:48:35.663Z,60.50
2018-10-15T12:51:05.379Z,62.00
2018-10-15T12:53:34.734Z,62.70
2018-10-15T12:56:03.851Z,61.60
2018-10-15T12:58:33.119Z,61.60
2018-10-15T13:01:02.251Z,61.80
2018-10-15T13:03:31.383Z,61.40
2018-10-15T13:06:00.732Z,62.00
2018-10-15T13:08:30.510Z,61.40
2018-10-15T13:10:59.725Z,60.90
2018-10-15T13:13:29.566Z,59.90
2018-10-15T13:15:59.395Z,59.80
2018-10-15T13:18:28.560Z,60.00
2018-10-15T13:20:57.759Z,60.10
2018-10-15T13:23:26.975Z,61.60
2018-10-15T13:25:56.723Z,60.00
2018-10-15T13:28:26.248Z,60.80
2018-10-15T13:30:55.576Z,61.10
2018-10-15T13:33:25.344Z,61.80
2018-10-15T13:35:54.451Z,63.30
2018-10-15T13:38:23.700Z,61.50
2018-10-15T13:40:52.855Z,61.20
2018-10-15T13:43:22.011Z,61.70
2018-10-15T13:45:51.187Z,62.50
2018-10-15T13:48:21.265Z,62.90
2018-10-15T13:50:50.431Z,62.10
2018-10-15T13:53:19.579Z,61.00
2018-10-15T13:55:49.370Z,61.80
2018-10-15T13:58:18.500Z,62.10
2018-10-15T14:00:47.894Z,62.00
2018-10-15T14:03:18.581Z,61.90
2018-10-15T14:05:47.813Z,60.90
2018-10-15T14:08:17.015Z,61.00
2018-10-15T14:10:47.055Z,62.00
2018-10-15T14:13:16.327Z,62.30
2018-10-15T14:15:45.491Z,62.80
2018-10-15T14:18:14.704Z,62.80
2018-10-15T14:20:43.907Z,61.50
2018-10-15T14:23:13.154Z,60.70
2018-10-15T14:25:42.247Z,59.70
2018-10-15T14:28:11.903Z,61.80
2018-10-15T14:30:41.116Z,60.10
2018-10-15T14:33:10.248Z,62.90
2018-10-15T14:35:39.483Z,60.50
2018-10-15T14:38:09.345Z,60.00
2018-10-15T14:40:41.437Z,62.10
2018-10-15T14:43:11.251Z,60.90
2018-10-15T14:45:40.396Z,59.90
2018-10-15T14:48:09.748Z,60.20
2018-10-15T14:50:38.989Z,60.40
2018-10-15T14:53:08.152Z,60.40
2018-10-15T14:55:37.242Z,59.80
2018-10-15T14:58:06.539Z,59.30
2018-10-15T15:00:35.675Z,60.10
2018-10-15T15:03:05.675Z,60.00
2018-10-15T15:05:34.754Z,60.30
2018-10-15T15:08:04.060Z,60.80
2018-10-15T15:10:44.474Z,60.80
2018-10-15T15:13:24.865Z,61.10
2018-10-15T15:15:53.917Z,60.70
2018-10-15T15:18:23.124Z,61.90
2018-10-15T15:20:52.272Z,63.40
2018-10-15T15:23:21.401Z,63.90
2018-10-15T15:25:50.580Z,63.70
2018-10-15T15:28:19.754Z,62.50
2018-10-15T15:30:49.009Z,65.20
2018-10-15T15:33:18.171Z,65.40
2018-10-15T15:35:47.904Z,64.10
2018-10-15T15:38:17.016Z,64.60
2018-10-15T15:40:46.930Z,63.40
2018-10-15T15:43:16.226Z,62.70
2018-10-15T15:45:45.454Z,64.50
2018-10-15T15:48:15.602Z,63.40
2018-10-15T15:50:45.310Z,67.10
2018-10-15T15:53:14.671Z,67.70
2018-10-15T15:55:44.080Z,67.90
2018-10-15T15:58:13.298Z,68.50
2018-10-15T16:00:42.591Z,68.80
2018-10-15T16:03:12.175Z,70.50
2018-10-15T16:05:41.393Z,72.60
2018-10-15T16:08:10.621Z,73.10
2018-10-15T16:10:39.922Z,72.50
2018-10-15T16:13:09.310Z,74.70
2018-10-15T16:15:39.288Z,74.10
2018-10-15T16:18:08.457Z,75.40
2018-10-15T16:20:37.747Z,76.40
2018-10-15T16:23:07.098Z,75.00
2018-10-15T16:25:36.401Z,76.20
2018-10-15T16:28:06.092Z,77.50
2018-10-15T16:30:35.289Z,77.60
2018-10-15T16:33:05.228Z,78.10
2018-10-15T16:35:34.427Z,78.30
2018-10-15T16:38:03.736Z,79.20
2018-10-15T16:40:32.870Z,79.20
2018-10-15T16:43:02.273Z,80.50
2018-10-15T16:45:31.952Z,79.10
2018-10-15T16:48:01.236Z,79.90
2018-10-15T16:50:30.643Z,80.60
2018-10-15T16:52:59.816Z,80.30
2018-10-15T16:55:29.348Z,80.40
2018-10-15T16:57:58.612Z,80.70
2018-10-15T17:00:28.576Z,80.40
2018-10-15T17:02:57.732Z,80.90
2018-10-15T17:05:27.747Z,80.50
2018-10-15T17:07:57.554Z,80.80
2018-10-15T17:10:27.908Z,79.30
2018-10-15T17:12:57.128Z,80.10
2018-10-15T17:15:29.206Z,81.10
2018-10-15T17:17:58.782Z,80.90
2018-10-15T17:20:28.805Z,81.20
2018-10-15T17:22:58.243Z,82.20
2018-10-15T17:25:27.429Z,81.50
2018-10-15T17:27:56.664Z,81.20
2018-10-15T17:30:26.246Z,81.20
2018-10-15T17:32:55.452Z,81.70
2018-10-15T17:35:24.818Z,82.70
2018-10-15T17:37:54.279Z,82.80
2018-10-15T17:40:23.570Z,83.20
2018-10-15T17:42:52.946Z,83.70
2018-10-15T17:45:22.248Z,84.30
2018-10-15T17:47:51.558Z,84.20
2018-10-15T17:50:21.651Z,83.80
2018-10-15T17:52:50.949Z,82.40
2018-10-15T17:55:20.418Z,82.70
2018-10-15T17:57:49.501Z,83.70
2018-10-15T18:00:21.223Z,84.10
2018-10-15T18:02:51.468Z,84.60
2018-10-15T18:05:21.306Z,84.60
2018-10-15T18:07:50.548Z,83.00
2018-10-15T18:10:19.732Z,83.80
2018-10-15T18:12:49.034Z,84.00
2018-10-15T18:15:18.206Z,86.00
2018-10-15T18:17:47.463Z,86.10
2018-10-15T18:20:16.749Z,86.60
2018-10-15T18:22:46.267Z,86.90
2018-10-15T18:25:16.848Z,87.30
2018-10-15T18:27:46.023Z,86.70
2018-10-15T18:30:16.196Z,87.80
2018-10-15T18:32:46.487Z,88.10
2018-10-15T18:35:16.380Z,87.60
2018-10-15T18:37:46.665Z,87.10
2018-10-15T18:40:16.182Z,87.50
2018-10-15T18:42:45.461Z,88.40
2018-10-15T18:45:15.905Z,89.20
2018-10-15T18:47:45.226Z,88.60
2018-10-15T18:50:15.609Z,89.10
2018-10-15T18:52:44.794Z,89.20
2018-10-15T18:55:14.632Z,90.00
2018-10-15T18:57:45.418Z,89.00
2018-10-15T19:00:15.190Z,89.20
2018-10-15T19:02:44.872Z,90.10
2018-10-15T19:05:14.768Z,88.30
2018-10-15T19:07:45.224Z,88.20
2018-10-15T19:10:14.494Z,88.90
2018-10-15T19:12:43.860Z,89.10
2018-10-15T19:15:13.889Z,88.80
2018-10-15T19:17:43.327Z,88.50
2018-10-15T19:20:14.611Z,87.50
2018-10-15T19:22:44.394Z,86.90
2018-10-15T19:25:13.673Z,88.80
2018-10-15T19:27:42.842Z,89.20
2018-10-15T19:30:14.033Z,89.30
2018-10-15T19:32:44.096Z,89.50
2018-10-15T19:35:13.882Z,89.60
2018-10-15T19:37:43.235Z,89.10
2018-10-15T19:40:13.370Z,89.10
2018-10-15T19:42:42.735Z,88.80
2018-10-15T19:45:12.164Z,88.90
2018-10-15T19:47:42.572Z,89.50
2018-10-15T19:50:11.785Z,89.50
2018-10-15T19:52:41.563Z,89.70
2018-10-15T19:55:11.516Z,89.70
2018-10-15T19:57:42.298Z,90.00
2018-10-15T20:00:14.572Z,90.10
2018-10-15T20:02:44.478Z,89.50
2018-10-15T20:05:13.943Z,89.30
2018-10-15T20:07:45.215Z,89.50
2018-10-15T20:10:15.715Z,89.60
2018-10-15T20:12:45.768Z,89.50
2018-10-15T20:15:14.963Z,89.80
2018-10-15T20:17:45.009Z,90.10
2018-10-15T20:20:14.227Z,90.30
2018-10-15T20:22:43.384Z,90.50
2018-10-15T20:25:13.089Z,91.00
2018-10-15T20:45:17.457Z,92.60
2018-10-15T20:47:46.979Z,92.60
2018-10-15T20:50:16.804Z,92.50
2018-10-15T20:52:46.683Z,92.50
2018-10-15T20:55:15.911Z,92.40
2018-10-15T20:57:45.304Z,92.60
2018-10-15T21:00:14.439Z,92.80
2018-10-15T21:02:44.972Z,92.60
2018-10-15T21:05:14.291Z,92.60
2018-10-15T21:07:43.622Z,92.90
2018-10-15T21:10:14.064Z,92.90
2018-10-15T21:12:43.794Z,92.80
2018-10-15T21:15:13.018Z,93.10
2018-10-15T21:17:42.411Z,93.50
2018-10-15T21:20:12.870Z,93.50
2018-10-15T21:22:42.368Z,93.60
2018-10-15T21:25:12.457Z,93.60
2018-10-15T21:27:42.296Z,93.90
2018-10-15T21:30:12.595Z,94.10
2018-10-15T21:32:42.343Z,94.30
2018-10-15T21:35:12.103Z,94.50
2018-10-15T21:37:41.179Z,94.70
2018-10-15T21:40:10.416Z,95.20
2018-10-15T21:42:40.874Z,94.90
2018-10-15T21:45:10.638Z,95.10
2018-10-15T21:47:39.844Z,95.20
2018-10-15T21:50:10.967Z,95.40
2018-10-15T21:52:46.947Z,95.60
2018-10-15T21:55:16.200Z,95.80
2018-10-15T21:57:45.333Z,95.90
2018-10-15T22:00:16.349Z,96.10
2018-10-15T22:02:45.616Z,96.30
2018-10-15T22:05:14.921Z,96.30
2018-10-15T22:07:44.097Z,96.60
2018-10-15T22:10:18.540Z,96.90
2018-10-15T22:12:47.686Z,97.00
2018-10-15T22:15:16.818Z,97.20
2018-10-15T22:17:46.012Z,97.20
2018-10-15T22:20:15.279Z,97.30
2018-10-15T22:22:44.367Z,97.40
2018-10-15T22:25:13.493Z,97.60
2018-10-15T22:27:42.613Z,97.90
2018-10-15T22:30:12.694Z,98.00
2018-10-15T22:32:41.818Z,98.00
2018-10-15T22:35:11.403Z,98.40
2018-10-15T22:37:40.516Z,98.40
2018-10-15T22:40:10.652Z,98.40
2018-10-15T22:42:40.187Z,98.50
2018-10-15T22:45:11.433Z,98.60
2018-10-15T22:47:41.318Z,98.70
2018-10-15T22:50:10.441Z,98.90
2018-10-15T22:52:39.554Z,98.80
2018-10-15T22:55:09.492Z,98.70
2018-10-15T22:57:38.588Z,98.80
2018-10-15T23:00:13.463Z,99.20
2018-10-15T23:02:42.600Z,99.00
2018-10-15T23:05:11.728Z,99.00
2018-10-15T23:07:41.462Z,99.10
2018-10-15T23:10:15.832Z,99.30
2018-10-15T23:12:45.679Z,99.30
2018-10-15T23:15:14.831Z,99.30
2018-10-15T23:17:43.993Z,99.40
2018-10-15T23:20:13.178Z,99.60
2018-10-15T23:22:42.262Z,99.60
2018-10-15T23:25:11.922Z,99.40
2018-10-15T23:27:41.073Z,99.70
2018-10-15T23:30:11.576Z,99.90
2018-10-15T23:32:41.872Z,99.90
2018-10-15T23:35:11.563Z,99.90
2018-10-15T23:37:41.691Z,99.90
2018-10-15T23:40:12.222Z,99.90
2018-10-15T23:42:41.488Z,99.90
2018-10-15T23:45:11.784Z,99.90
2018-10-15T23:47:41.263Z,99.90
2018-10-15T23:50:12.867Z,99.90
2018-10-15T23:52:42.112Z,99.90
2018-10-15T23:55:12.689Z,99.90
2018-10-15T23:57:41.852Z,99.90
